Homewood, IL (60430)

6:19 AM CDT on October 25, 2014 (GMT -0500)
Brookwood Point | Change Station
CLOSE
Current Station
Personal Weather Station
Location: Glenwood, IL
Elevation: 620 ft
Nearby Weather Stations

Elev 620 ft 41.54 °N, 87.59 °W | Updated 16 seconds ago

Mostly Cloudy
Mostly Cloudy
54.9 °F
Feels Like 54.9 °F
N
0.0
Wind Variable Wind from NW
Gusts 0.0 mph

Today
High -- | Low -- °F
--% Chance of Precip.
Yesterday
High -- | Low -- °F
Precip. -- in
7:14 AM 5:54 PM
Waxing Crescent, 3% visible
Pressure 29.93 in
Visibility 4.0 miles
Clouds Scattered Clouds 1100 ft
Dew Point 50 °F
Humidity 84%
Rainfall 0.00 in
Snow Depth Not available.
UV 0.0 out of 12
Pollen 1.60 out of 12
Ozone Good
PM2.5 Moderate
Flu Activity No Activity
METAR KIGQ 251055Z AUTO 27003KT 4SM BR SCT011 10/09 A2993

More Conditions Fewer Conditions

Pressure 29.93 in
Visibility 4.0 miles
Clouds Scattered Clouds 1100 ft
Dew Point 50 °F
Humidity 84%
Rainfall 0.00 in
Snow Depth Not available.
UV 0.0 out of 12
Pollen 1.60 out of 12
Ozone Good
PM2.5 Moderate
Flu Activity No Activity
METAR KIGQ 251055Z AUTO 27003KT 4SM BR SCT011 10/09 A2993

More Conditions Fewer Conditions

10-Day Weather Forecast

Almanac

Astronomy

Oct. 25, 2014 Rise Set
Actual Time 7:14 AM CDT 5:54 PM CDT
Civil Twilight 6:45 AM CDT 6:23 PM CDT
Nautical Twilight 6:13 AM CDT 6:55 PM CDT
Astronomical Twilight 5:41 AM CDT 7:27 PM CDT
Moon 8:53 AM CDT 7:16 PM CDT
Length of Visible Light 11h 37m
Length of Day
10h 40m
Tomorrow will be 2m 33s shorter.
Waxing Crescent, 3% of the Moon is Illuminated
Today
Waxing Crescent
Oct 30
First Quarter
Nov 6
Full
Nov 14
Last Quarter
Nov 22
New

Today's Extremes

State Highs State Lows

Community

WunderPhotos

Upload Photos

1,764,808 photos uploaded!

Nearby

Air Quality

  Air Quality AQ Index Pollutant
Yesterday Moderate
PM2.5
Yesterday Good
OZONE
Current Moderate
PM2.5
Current Good
OZONE
Saturday Good
PM2.5
Sunday Good
PM2.5
Monday Moderate
PM2.5
Tuesday Good
PM2.5
Wednesday Good
PM2.5

Snow Depth

Station Depth Elevation
No new snow has been reported.

Earthquake Activity

City Distance Mag. Time & Date
No recent earthquake activity has been reported nearby.
Minimum magnitude displayed is 2.5.

Coastal Water Temperatures

Place Temperature
No Stations Reporting

Nearby Weather Stations